createdAt,value
2018-10-02T00:02:00.461Z,6.16
2018-10-02T00:04:29.308Z,6.20
2018-10-02T00:06:57.852Z,6.16
2018-10-02T00:09:26.625Z,6.13
2018-10-02T00:12:00.649Z,6.11
2018-10-02T00:14:30.402Z,6.13
2018-10-02T00:16:59.259Z,6.13
2018-10-02T00:19:28.150Z,6.08
2018-10-02T00:21:57.437Z,6.03
2018-10-02T00:24:26.148Z,6.06
2018-10-02T00:26:54.871Z,5.95
2018-10-02T00:29:23.340Z,5.96
2018-10-02T00:31:52.032Z,5.96
2018-10-02T00:34:20.664Z,5.89
2018-10-02T00:36:49.575Z,5.91
2018-10-02T00:39:18.478Z,5.87
2018-10-02T00:41:47.368Z,5.80
2018-10-02T00:44:16.706Z,5.83
2018-10-02T00:46:45.753Z,5.88
2018-10-02T00:49:14.282Z,5.89
2018-10-02T00:51:43.935Z,5.88
2018-10-02T00:54:12.581Z,5.89
2018-10-02T00:56:41.420Z,5.83
2018-10-02T00:59:09.909Z,5.81
2018-10-02T01:01:38.915Z,5.83
2018-10-02T01:04:08.092Z,5.83
2018-10-02T01:06:36.800Z,5.82
2018-10-02T01:09:09.088Z,5.82
2018-10-02T01:11:37.750Z,5.84
2018-10-02T01:14:06.403Z,5.76
2018-10-02T01:16:35.061Z,5.81
2018-10-02T01:19:03.977Z,5.77
2018-10-02T01:21:32.926Z,5.77
2018-10-02T01:24:01.994Z,5.78
2018-10-02T01:26:31.394Z,5.81
2018-10-02T01:28:59.825Z,5.76
2018-10-02T01:31:28.426Z,5.74
2018-10-02T01:33:56.964Z,5.68
2018-10-02T01:36:25.539Z,5.70
2018-10-02T01:38:54.245Z,5.70
2018-10-02T01:41:23.097Z,5.72
2018-10-02T01:43:51.990Z,5.73
2018-10-02T01:46:20.512Z,5.69
2018-10-02T01:48:49.774Z,5.65
2018-10-02T01:51:18.225Z,5.64
2018-10-02T01:53:46.927Z,5.61
2018-10-02T01:56:15.658Z,5.59
2018-10-02T01:58:44.540Z,5.60
2018-10-02T02:01:13.111Z,5.61
2018-10-02T02:03:42.407Z,5.59
2018-10-02T02:06:11.436Z,5.61
2018-10-02T02:08:40.727Z,5.62
2018-10-02T02:11:09.360Z,5.56
2018-10-02T02:13:38.112Z,5.56
2018-10-02T02:16:06.598Z,5.62
2018-10-02T02:18:35.539Z,5.58
2018-10-02T02:21:03.987Z,5.59
2018-10-02T02:23:33.224Z,5.58
2018-10-02T02:26:02.034Z,5.57
2018-10-02T02:28:30.949Z,5.57
2018-10-02T02:31:00.059Z,5.57
2018-10-02T02:33:28.842Z,5.55
2018-10-02T02:35:57.609Z,5.55
2018-10-02T02:38:26.563Z,5.54
2018-10-02T02:40:55.075Z,5.54
2018-10-02T02:43:24.547Z,5.57
2018-10-02T02:45:53.790Z,5.56
2018-10-02T02:48:27.649Z,5.56
2018-10-02T02:51:58.634Z,5.48
2018-10-02T02:54:27.206Z,5.45
2018-10-02T02:56:55.634Z,5.39
2018-10-02T02:59:24.770Z,5.37
2018-10-02T03:01:53.470Z,5.43
2018-10-02T03:04:22.386Z,5.40
2018-10-02T03:06:51.123Z,5.43
2018-10-02T03:09:19.734Z,5.37
2018-10-02T03:11:48.325Z,5.37
2018-10-02T03:14:16.804Z,5.36
2018-10-02T03:16:45.346Z,5.35
2018-10-02T03:19:14.477Z,5.33
2018-10-02T03:21:43.014Z,5.33
2018-10-02T03:24:11.616Z,5.27
2018-10-02T03:26:40.733Z,5.30
2018-10-02T03:29:09.505Z,5.31
2018-10-02T03:31:38.021Z,5.32
2018-10-02T03:34:06.480Z,5.33
2018-10-02T03:36:35.391Z,5.36
2018-10-02T03:39:04.426Z,5.31
2018-10-02T03:41:32.999Z,5.32
2018-10-02T03:44:02.222Z,5.24
2018-10-02T03:46:30.725Z,5.27
2018-10-02T03:48:59.892Z,5.27
2018-10-02T03:51:29.707Z,5.29
2018-10-02T03:53:58.418Z,5.33
2018-10-02T03:56:26.968Z,5.24
2018-10-02T03:58:55.450Z,5.29
2018-10-02T04:01:23.930Z,5.28
2018-10-02T04:03:52.517Z,5.31
2018-10-02T04:06:21.713Z,5.29
2018-10-02T04:08:50.710Z,5.30
2018-10-02T04:11:19.389Z,5.30
2018-10-02T04:13:47.842Z,5.36
2018-10-02T04:16:16.303Z,5.33
2018-10-02T04:18:44.799Z,5.39
2018-10-02T04:21:13.621Z,5.43
2018-10-02T04:23:42.276Z,5.43
2018-10-02T04:26:11.579Z,5.42
2018-10-02T04:28:40.070Z,5.43
2018-10-02T04:31:08.686Z,5.45
2018-10-02T04:33:37.514Z,5.48
2018-10-02T04:36:06.252Z,5.48
2018-10-02T04:38:35.330Z,5.48
2018-10-02T04:41:04.373Z,5.51
2018-10-02T04:43:32.806Z,5.53
2018-10-02T04:46:01.432Z,5.60
2018-10-02T04:48:30.237Z,5.64
2018-10-02T04:50:59.053Z,5.64
2018-10-02T04:53:28.212Z,5.72
2018-10-02T04:55:56.662Z,5.78
2018-10-02T04:58:25.578Z,5.76
2018-10-02T05:00:54.115Z,5.88
2018-10-02T05:03:23.039Z,5.87
2018-10-02T05:05:51.557Z,5.92
2018-10-02T05:08:20.296Z,5.91
2018-10-02T05:10:48.869Z,5.93
2018-10-02T05:13:17.807Z,5.98
2018-10-02T05:15:46.305Z,6.00
2018-10-02T05:18:14.935Z,6.05
2018-10-02T05:20:44.066Z,6.06
2018-10-02T05:23:12.570Z,6.09
2018-10-02T05:25:41.048Z,6.09
2018-10-02T05:28:09.490Z,6.15
2018-10-02T05:30:38.036Z,6.20
2018-10-02T05:33:06.567Z,6.25
2018-10-02T05:35:35.291Z,6.24
2018-10-02T05:38:03.836Z,6.26
2018-10-02T05:40:32.385Z,6.27
2018-10-02T05:43:01.087Z,6.29
2018-10-02T05:45:29.725Z,6.32
2018-10-02T05:47:59.187Z,6.32
2018-10-02T05:50:27.852Z,6.36
2018-10-02T05:52:56.401Z,6.40
2018-10-02T05:55:24.912Z,6.44
2018-10-02T05:57:53.483Z,6.47
2018-10-02T06:00:22.126Z,6.47
2018-10-02T06:02:50.768Z,6.50
2018-10-02T06:05:19.235Z,6.54
2018-10-02T06:07:47.681Z,6.58
2018-10-02T06:10:16.220Z,6.60
2018-10-02T06:12:44.683Z,6.61
2018-10-02T06:15:13.373Z,6.64
2018-10-02T06:17:41.942Z,6.66
2018-10-02T06:20:10.490Z,6.72
2018-10-02T06:22:39.339Z,6.79
2018-10-02T06:25:07.813Z,6.82
2018-10-02T06:27:36.327Z,6.86
2018-10-02T06:30:05.368Z,6.90
2018-10-02T06:32:34.045Z,6.92
2018-10-02T06:35:02.576Z,7.04
2018-10-02T06:37:31.508Z,7.06
2018-10-02T06:40:00.012Z,7.13
2018-10-02T06:42:28.601Z,7.10
2018-10-02T06:44:57.121Z,7.15
2018-10-02T06:47:25.741Z,7.18
2018-10-02T06:49:54.297Z,7.24
2018-10-02T06:52:23.057Z,7.26
2018-10-02T06:54:51.322Z,7.35
2018-10-02T06:57:19.866Z,7.41
2018-10-02T06:59:48.283Z,7.40
2018-10-02T07:02:16.870Z,7.38
2018-10-02T07:04:45.971Z,7.45
2018-10-02T07:07:14.423Z,7.48
2018-10-02T07:09:44.211Z,7.49
2018-10-02T07:12:12.886Z,7.52
2018-10-02T07:14:41.864Z,7.48
2018-10-02T07:17:10.449Z,7.51
2018-10-02T07:19:39.411Z,7.53
2018-10-02T07:22:08.102Z,7.59
2018-10-02T07:24:37.148Z,7.62
2018-10-02T07:27:06.170Z,7.60
2018-10-02T07:29:34.625Z,7.60
2018-10-02T07:32:03.355Z,7.62
2018-10-02T07:34:32.365Z,7.63
2018-10-02T07:37:01.007Z,7.66
2018-10-02T07:39:29.420Z,7.66
2018-10-02T07:41:57.976Z,7.61
2018-10-02T07:44:26.440Z,7.61
2018-10-02T07:46:54.898Z,7.64
2018-10-02T07:49:23.335Z,7.64
2018-10-02T07:51:51.919Z,7.67
2018-10-02T07:54:20.422Z,7.67
2018-10-02T07:56:49.072Z,7.63
2018-10-02T07:59:17.541Z,7.60
2018-10-02T08:01:46.185Z,7.65
2018-10-02T08:04:14.873Z,7.66
2018-10-02T08:06:43.367Z,7.55
2018-10-02T08:09:13.034Z,7.53
2018-10-02T08:11:41.696Z,7.53
2018-10-02T08:14:10.216Z,7.57
2018-10-02T08:16:40.008Z,7.64
2018-10-02T08:19:08.513Z,7.61
2018-10-02T08:21:36.988Z,7.62
2018-10-02T08:24:05.543Z,7.60
2018-10-02T08:26:34.024Z,7.67
2018-10-02T08:29:02.529Z,7.67
2018-10-02T08:31:31.284Z,7.70
2018-10-02T08:34:00.220Z,7.76
2018-10-02T08:36:28.974Z,7.77
2018-10-02T08:38:57.589Z,7.76
2018-10-02T08:41:26.101Z,7.85
2018-10-02T08:44:01.118Z,7.84
2018-10-02T08:46:29.839Z,7.88
2018-10-02T08:48:59.099Z,7.91
2018-10-02T08:51:27.693Z,7.89
2018-10-02T08:53:56.252Z,7.95
2018-10-02T08:56:24.682Z,8.00
2018-10-02T08:58:53.161Z,7.97
2018-10-02T09:01:21.672Z,7.92
2018-10-02T09:03:50.220Z,7.99
2018-10-02T09:06:19.322Z,8.04
2018-10-02T09:08:47.749Z,8.07
2018-10-02T09:11:16.423Z,8.12
2018-10-02T09:13:45.030Z,8.13
2018-10-02T09:16:13.744Z,8.22
2018-10-02T09:18:42.382Z,8.18
2018-10-02T09:21:11.704Z,8.24
2018-10-02T09:23:40.761Z,8.22
2018-10-02T09:26:09.363Z,8.19
2018-10-02T09:28:37.918Z,8.15
2018-10-02T09:31:11.745Z,8.16
2018-10-02T09:33:45.606Z,8.18
2018-10-02T09:36:19.442Z,8.18
2018-10-02T09:38:53.128Z,8.17
2018-10-02T09:43:33.452Z,8.23
2018-10-02T09:46:02.717Z,8.19
2018-10-02T09:48:31.167Z,8.26
2018-10-02T09:50:59.816Z,8.29
2018-10-02T09:53:28.303Z,8.29
2018-10-02T09:55:56.966Z,8.29
2018-10-02T09:58:25.454Z,8.30
2018-10-02T10:00:59.350Z,8.33
2018-10-02T10:03:27.834Z,8.29
2018-10-02T10:05:56.392Z,8.29
2018-10-02T10:08:24.844Z,8.31
2018-10-02T10:10:53.473Z,8.32
2018-10-02T10:13:21.906Z,8.29
2018-10-02T10:15:50.475Z,8.33
2018-10-02T10:18:19.566Z,8.37
2018-10-02T10:20:48.908Z,8.41
2018-10-02T10:23:17.423Z,8.38
2018-10-02T10:25:45.922Z,8.39
2018-10-02T10:28:14.417Z,8.44
2018-10-02T10:30:42.842Z,8.42
2018-10-02T10:33:11.687Z,8.51
2018-10-02T10:35:40.309Z,8.54
2018-10-02T10:38:08.887Z,8.63
2018-10-02T10:40:37.752Z,8.65
2018-10-02T10:43:06.361Z,8.71
2018-10-02T10:45:35.305Z,8.78
2018-10-02T10:48:04.255Z,8.82
2018-10-02T10:50:32.933Z,8.91
2018-10-02T10:53:01.574Z,8.86
2018-10-02T10:55:35.843Z,8.94
2018-10-02T10:58:05.341Z,8.99
2018-10-02T11:00:34.051Z,8.99
2018-10-02T11:03:02.865Z,8.98
2018-10-02T11:05:31.399Z,8.95
2018-10-02T11:08:00.310Z,9.04
2018-10-02T11:10:29.099Z,9.01
2018-10-02T11:12:57.666Z,9.07
2018-10-02T11:15:28.663Z,9.05
2018-10-02T11:17:57.532Z,9.17
2018-10-02T11:20:29.080Z,9.22
2018-10-02T11:22:57.777Z,9.23
2018-10-02T11:25:26.854Z,9.23
2018-10-02T11:27:56.244Z,9.29
2018-10-02T11:30:25.013Z,9.32
2018-10-02T11:32:54.641Z,9.33
2018-10-02T11:35:23.686Z,9.31
2018-10-02T11:37:52.481Z,9.26
2018-10-02T11:40:21.005Z,9.25
2018-10-02T11:42:50.359Z,9.24
2018-10-02T11:45:19.161Z,9.26
2018-10-02T11:47:48.542Z,9.41
2018-10-02T11:50:17.240Z,9.36
2018-10-02T11:52:46.118Z,9.45
2018-10-02T11:55:14.865Z,9.56
2018-10-02T11:57:43.519Z,9.51
2018-10-02T12:00:12.137Z,9.51
2018-10-02T12:02:40.702Z,9.63
2018-10-02T12:05:09.348Z,9.45
2018-10-02T12:07:37.987Z,9.53
2018-10-02T12:10:06.780Z,9.58
2018-10-02T12:12:35.362Z,9.69
2018-10-02T12:15:04.073Z,9.71
2018-10-02T12:17:32.929Z,9.63
2018-10-02T12:20:01.695Z,9.73
2018-10-02T12:22:30.292Z,9.72
2018-10-02T12:24:59.036Z,9.86
2018-10-02T12:27:27.786Z,9.96
2018-10-02T12:29:56.666Z,10.01
2018-10-02T12:32:25.464Z,9.93
2018-10-02T12:34:53.978Z,10.01
2018-10-02T12:37:22.730Z,9.93
2018-10-02T12:39:51.371Z,9.91
2018-10-02T12:42:20.104Z,10.00
2018-10-02T12:44:48.815Z,10.11
2018-10-02T12:47:17.514Z,10.07
2018-10-02T12:49:46.362Z,10.13
2018-10-02T12:52:15.382Z,9.90
2018-10-02T12:54:44.192Z,9.88
2018-10-02T12:57:13.165Z,9.92
2018-10-02T12:59:42.049Z,9.86
2018-10-02T13:02:10.810Z,9.86
2018-10-02T13:04:39.357Z,9.88
2018-10-02T13:07:08.248Z,9.75
2018-10-02T13:09:36.868Z,9.87
2018-10-02T13:12:05.579Z,9.87
2018-10-02T13:14:34.593Z,9.81
2018-10-02T13:17:04.382Z,9.77
2018-10-02T13:19:34.247Z,9.78
2018-10-02T13:22:02.981Z,9.67
2018-10-02T13:24:31.607Z,9.65
2018-10-02T13:27:00.757Z,9.68
2018-10-02T13:29:29.299Z,9.60
2018-10-02T13:31:57.954Z,9.58
2018-10-02T13:36:54.394Z,9.50
2018-10-02T13:39:23.107Z,9.49
2018-10-02T13:41:51.810Z,9.60
2018-10-02T13:44:20.485Z,9.58
2018-10-02T13:46:50.395Z,9.51
2018-10-02T13:49:19.256Z,9.46
2018-10-02T13:51:47.975Z,9.46
2018-10-02T13:54:16.707Z,9.55
2018-10-02T13:56:45.370Z,9.52
2018-10-02T13:59:13.977Z,9.43
2018-10-02T14:01:42.517Z,9.37
2018-10-02T14:04:11.138Z,9.46
2018-10-02T14:06:39.685Z,9.47
2018-10-02T14:09:08.864Z,9.40
2018-10-02T14:11:37.889Z,9.40
2018-10-02T14:14:06.327Z,9.46
2018-10-02T14:16:34.903Z,9.44
2018-10-02T14:19:03.551Z,9.36
2018-10-02T14:21:31.927Z,9.33
2018-10-02T14:24:00.540Z,9.37
2018-10-02T14:26:29.124Z,9.36
2018-10-02T14:28:57.638Z,9.33
2018-10-02T14:31:26.120Z,9.29
2018-10-02T14:33:54.668Z,9.36
2018-10-02T14:36:23.190Z,9.38
2018-10-02T14:38:52.143Z,9.38
2018-10-02T14:41:20.579Z,9.32
2018-10-02T14:43:49.036Z,9.30
2018-10-02T14:46:17.590Z,9.32
2018-10-02T14:48:46.090Z,9.30
2018-10-02T14:51:15.299Z,9.34
2018-10-02T14:53:44.045Z,9.31
2018-10-02T14:56:43.854Z,9.37
2018-10-02T14:59:12.785Z,9.38
2018-10-02T15:01:41.391Z,9.44
2018-10-02T15:04:09.843Z,9.46
2018-10-02T15:06:38.382Z,9.48
2018-10-02T15:09:08.097Z,9.54
2018-10-02T15:11:36.881Z,9.51
2018-10-02T15:14:05.523Z,9.51
2018-10-02T15:16:35.165Z,9.55
2018-10-02T15:19:03.619Z,9.56
2018-10-02T15:21:32.384Z,9.52
2018-10-02T15:24:00.872Z,9.56
2018-10-02T15:26:29.438Z,9.57
2018-10-02T15:28:58.381Z,9.67
2018-10-02T15:31:26.877Z,9.67
2018-10-02T15:33:55.288Z,9.70
2018-10-02T15:36:25.898Z,9.72
2018-10-02T15:38:55.279Z,9.72
2018-10-02T15:41:25.289Z,9.76
2018-10-02T15:43:55.257Z,9.77
2018-10-02T15:46:26.084Z,9.81
2018-10-02T15:48:54.810Z,9.86
2018-10-02T15:51:24.623Z,9.85
2018-10-02T15:53:53.469Z,9.90
2018-10-02T15:56:23.338Z,9.89
2018-10-02T15:58:52.235Z,9.90
2018-10-02T16:01:21.331Z,9.91
2018-10-02T16:03:53.654Z,9.97
2018-10-02T16:06:23.487Z,10.02
2018-10-02T16:08:55.338Z,10.05
2018-10-02T16:11:28.884Z,10.09
2018-10-02T16:13:58.206Z,10.14
2018-10-02T16:16:27.201Z,10.23
2018-10-02T16:18:56.041Z,10.27
2018-10-02T16:21:25.043Z,10.28
2018-10-02T16:23:53.722Z,10.34
2018-10-02T16:26:23.193Z,10.38
2018-10-02T16:28:52.867Z,10.41
2018-10-02T16:31:21.637Z,10.47
2018-10-02T16:33:50.419Z,10.43
2018-10-02T16:36:25.125Z,10.43
2018-10-02T16:38:59.530Z,10.46
2018-10-02T16:41:29.497Z,10.43
2018-10-02T16:44:01.380Z,10.44
2018-10-02T16:46:31.697Z,10.48
2018-10-02T16:49:00.929Z,10.46
2018-10-02T16:51:30.216Z,10.50
2018-10-02T16:53:59.349Z,10.53
2018-10-02T16:56:29.219Z,10.53
2018-10-02T16:58:58.093Z,10.55
2018-10-02T17:01:27.113Z,10.55
2018-10-02T17:03:55.891Z,10.56
2018-10-02T17:06:26.705Z,10.59
2018-10-02T17:08:57.130Z,10.63
2018-10-02T17:11:26.119Z,10.67
2018-10-02T17:13:55.843Z,10.66
2018-10-02T17:16:24.352Z,10.68
2018-10-02T17:18:53.007Z,10.68
2018-10-02T17:21:21.912Z,10.68
2018-10-02T17:23:50.461Z,10.80
2018-10-02T17:26:19.219Z,10.78
2018-10-02T17:28:48.389Z,10.83
2018-10-02T17:31:17.481Z,10.92
2018-10-02T17:33:46.678Z,11.02
2018-10-02T17:36:16.499Z,11.14
2018-10-02T17:38:45.783Z,11.17
2018-10-02T17:41:14.939Z,11.25
2018-10-02T17:43:45.915Z,11.29
2018-10-02T17:46:16.589Z,11.38
2018-10-02T17:48:46.354Z,11.43
2018-10-02T17:51:15.476Z,11.40
2018-10-02T17:53:44.213Z,11.37
2018-10-02T17:56:13.178Z,11.36
2018-10-02T17:58:44.233Z,11.34
2018-10-02T18:01:13.777Z,11.32
2018-10-02T18:03:42.876Z,11.32
2018-10-02T18:06:14.576Z,11.35
2018-10-02T18:08:43.479Z,11.35
2018-10-02T18:11:12.451Z,11.35
2018-10-02T18:13:42.135Z,11.34
2018-10-02T18:16:10.843Z,11.35
2018-10-02T18:18:42.272Z,11.36
2018-10-02T18:21:11.101Z,11.40
2018-10-02T18:23:41.275Z,11.41
2018-10-02T18:26:10.571Z,11.44
2018-10-02T18:28:39.470Z,11.43
2018-10-02T18:31:08.507Z,11.46
2018-10-02T18:33:40.149Z,11.50
2018-10-02T18:36:31.292Z,11.52
2018-10-02T18:39:01.380Z,11.50
2018-10-02T18:41:38.037Z,11.50
2018-10-02T18:44:15.615Z,11.51
2018-10-02T18:46:55.924Z,11.54
2018-10-02T18:49:33.888Z,11.55
2018-10-02T18:52:04.469Z,11.52
2018-10-02T18:54:34.551Z,11.52
2018-10-02T18:57:03.735Z,11.59
2018-10-02T18:59:32.422Z,11.55
2018-10-02T19:02:01.466Z,11.55
2018-10-02T19:04:30.123Z,11.52
2018-10-02T19:06:59.233Z,11.61
2018-10-02T19:09:27.888Z,11.60
2018-10-02T19:12:01.984Z,11.59
2018-10-02T19:14:30.776Z,11.64
2018-10-02T19:16:59.576Z,11.68
2018-10-02T19:19:33.226Z,11.71
2018-10-02T19:22:02.193Z,11.74
2018-10-02T19:24:30.791Z,11.73
2018-10-02T19:26:59.454Z,11.76
2018-10-02T19:29:28.290Z,11.76
2018-10-02T19:32:00.719Z,11.76
2018-10-02T19:34:29.527Z,11.77
2018-10-02T19:36:58.281Z,11.78
2018-10-02T19:39:28.562Z,11.79
2018-10-02T19:41:58.729Z,11.82
2018-10-02T19:44:27.824Z,11.82
2018-10-02T19:47:00.209Z,11.82
2018-10-02T19:49:34.015Z,11.80
2018-10-02T19:52:09.803Z,11.82
2018-10-02T19:54:38.516Z,11.78
2018-10-02T19:57:08.363Z,11.78
2018-10-02T19:59:37.089Z,11.78
2018-10-02T20:02:05.621Z,11.80
2018-10-02T20:04:34.537Z,11.77
2018-10-02T20:07:03.734Z,11.76
2018-10-02T20:09:32.313Z,11.85
2018-10-02T20:12:01.391Z,11.82
2018-10-02T20:14:30.288Z,11.81
2018-10-02T20:16:58.975Z,11.79
2018-10-02T20:19:28.672Z,11.81
2018-10-02T20:21:57.300Z,11.80
2018-10-02T20:24:26.625Z,11.82
2018-10-02T20:26:55.238Z,11.80
2018-10-02T20:29:23.775Z,11.76
2018-10-02T20:31:53.010Z,11.74
2018-10-02T20:34:21.708Z,11.75
2018-10-02T20:36:50.212Z,11.74
2018-10-02T20:39:19.563Z,11.74
2018-10-02T20:41:48.049Z,11.70
2018-10-02T20:44:16.470Z,11.70
2018-10-02T20:46:45.395Z,11.69
2018-10-02T20:49:13.881Z,11.72
2018-10-02T20:51:43.267Z,11.76
2018-10-02T20:54:11.918Z,11.76
2018-10-02T20:56:40.930Z,11.80
2018-10-02T20:59:09.673Z,11.81
2018-10-02T21:01:38.133Z,11.81
2018-10-02T21:04:06.763Z,11.80
2018-10-02T21:06:36.294Z,11.86
2018-10-02T21:09:06.543Z,11.82
2018-10-02T21:11:34.922Z,11.80
2018-10-02T21:14:03.374Z,11.81
2018-10-02T21:16:32.148Z,11.79
2018-10-02T21:19:00.636Z,11.77
2018-10-02T21:21:29.042Z,11.74
2018-10-02T21:23:58.211Z,11.74
2018-10-02T21:26:26.867Z,11.73
2018-10-02T21:28:55.368Z,11.74
2018-10-02T21:31:23.734Z,11.72
2018-10-02T21:33:52.365Z,11.71
2018-10-02T21:36:20.722Z,11.64
2018-10-02T21:38:50.554Z,11.59
2018-10-02T21:41:19.961Z,11.56
2018-10-02T21:43:48.488Z,11.51
2018-10-02T21:46:17.145Z,11.50
2018-10-02T21:48:45.925Z,11.52
2018-10-02T21:51:14.667Z,11.49
2018-10-02T21:53:43.409Z,11.51
2018-10-02T21:56:12.114Z,11.46
2018-10-02T21:58:40.931Z,11.42
2018-10-02T22:01:09.308Z,11.37
2018-10-02T22:03:39.324Z,11.39
2018-10-02T22:06:08.110Z,11.39
2018-10-02T22:08:36.578Z,11.45
2018-10-02T22:11:05.379Z,11.43
2018-10-02T22:13:33.737Z,11.42
2018-10-02T22:16:02.121Z,11.43
2018-10-02T22:18:30.491Z,11.41
2018-10-02T22:20:58.856Z,11.42
2018-10-02T22:23:27.350Z,11.42
2018-10-02T22:25:55.752Z,11.45
2018-10-02T22:28:24.126Z,11.39
2018-10-02T22:30:52.997Z,11.40
2018-10-02T22:33:21.470Z,11.38
2018-10-02T22:35:49.872Z,11.40
2018-10-02T22:38:18.586Z,11.41
2018-10-02T22:40:46.997Z,11.40
2018-10-02T22:43:15.777Z,11.39
2018-10-02T22:45:44.591Z,11.41
2018-10-02T22:48:12.942Z,11.41
2018-10-02T22:50:41.360Z,11.42
2018-10-02T22:53:09.739Z,11.43
2018-10-02T22:55:38.088Z,11.37
2018-10-02T22:58:06.892Z,11.36
2018-10-02T23:00:35.282Z,11.36
2018-10-02T23:03:03.712Z,11.33
2018-10-02T23:05:32.125Z,11.35
2018-10-02T23:08:00.483Z,11.34
2018-10-02T23:10:28.817Z,11.28
2018-10-02T23:12:57.253Z,11.28
2018-10-02T23:15:25.592Z,11.28
2018-10-02T23:17:53.903Z,11.20
2018-10-02T23:20:22.351Z,11.19
2018-10-02T23:22:51.245Z,11.16
2018-10-02T23:25:20.190Z,11.17
2018-10-02T23:27:48.677Z,11.08
2018-10-02T23:30:17.703Z,11.09
2018-10-02T23:32:46.097Z,11.09
2018-10-02T23:35:14.462Z,11.01
2018-10-02T23:37:43.225Z,10.90
2018-10-02T23:40:12.051Z,10.84
2018-10-02T23:42:40.981Z,10.72
2018-10-02T23:45:09.953Z,10.72
2018-10-02T23:47:38.354Z,10.66
2018-10-02T23:50:06.742Z,10.58
2018-10-02T23:52:35.090Z,10.51
2018-10-02T23:55:03.466Z,10.45
2018-10-02T23:57:31.881Z,10.44
